Time;durP1;ratioP1;P1;durP2;ratioP2;P2;SDS_P1;SDS_P2;PMS_P1;PMS_P2;Temp;Humidity;BMP_temperature;BMP_pressure;BME280_temperature;BME280_humidity;BME280_pressure;Samples;Min_cycle;Max_cycle;Signal;HPM_P1;HPM_P2
2024/02/22 00:02:09;;;;;;;2.47;1.42;;;11.90;1.00;;;;;;7372276;19;20781;-71
2024/02/22 00:04:39;;;;;;;2.60;1.30;;;11.90;1.00;;;;;;7367860;19;20051;-72
2024/02/22 00:07:14;;;;;;;3.05;1.30;;;11.90;1.00;;;;;;7368892;19;20015;-71
2024/02/22 00:09:44;;;;;;;3.03;1.35;;;11.70;1.00;;;;;;7371862;19;20566;-71
2024/02/22 00:12:14;;;;;;;1.83;1.48;;;11.70;1.00;;;;;;7370358;19;20011;-71
2024/02/22 00:14:45;;;;;;;4.93;1.40;;;11.70;1.00;;;;;;7373227;19;20057;-70
2024/02/22 00:17:15;;;;;;;2.80;1.80;;;11.70;1.00;;;;;;7373750;19;20684;-72
2024/02/22 00:19:46;;;;;;;1.88;1.42;;;11.70;1.00;;;;;;7373403;19;20078;-71
2024/02/22 00:22:19;;;;;;;4.05;1.85;;;11.60;1.00;;;;;;7371343;19;20014;-71
2024/02/22 00:24:49;;;;;;;2.78;1.50;;;11.60;1.00;;;;;;7370404;19;20015;-71
2024/02/22 00:27:21;;;;;;;4.50;1.23;;;11.60;1.00;;;;;;7370172;19;20028;-71
2024/02/22 00:29:51;;;;;;;2.17;1.20;;;11.60;1.00;;;;;;7369411;19;20643;-71
2024/02/22 00:32:21;;;;;;;2.58;1.20;;;11.50;1.00;;;;;;7371601;19;20011;-73
2024/02/22 00:34:51;;;;;;;3.25;1.70;;;11.50;1.00;;;;;;7371363;19;20035;-72
2024/02/22 00:37:24;;;;;;;3.15;1.50;;;11.40;1.00;;;;;;7367900;19;20097;-71
2024/02/22 00:39:54;;;;;;;2.13;1.50;;;11.30;1.00;;;;;;7369475;19;20723;-71
2024/02/22 00:42:24;;;;;;;3.08;1.35;;;11.30;1.00;;;;;;7366757;19;20469;-72
2024/02/22 00:44:54;;;;;;;2.10;1.70;;;11.20;1.00;;;;;;7369909;19;20007;-72
2024/02/22 00:47:24;;;;;;;3.17;1.73;;;11.20;1.00;;;;;;7368352;19;20014;-71
2024/02/22 00:49:54;;;;;;;2.20;1.65;;;11.10;1.00;;;;;;7370461;19;20015;-72
2024/02/22 00:52:27;;;;;;;4.97;1.83;;;11.10;1.00;;;;;;7369614;19;20040;-72
2024/02/22 00:54:58;;;;;;;1.65;1.40;;;11.00;1.00;;;;;;7367303;19;20014;-72
2024/02/22 00:57:29;;;;;;;2.50;1.67;;;11.00;1.00;;;;;;7368456;19;20868;-71
2024/02/22 00:59:59;;;;;;;2.03;1.50;;;11.00;1.00;;;;;;7369393;19;20014;-71
2024/02/22 01:02:30;;;;;;;3.60;1.70;;;11.10;1.00;;;;;;7369986;19;20688;-71
2024/02/22 01:04:59;;;;;;;2.83;1.90;;;11.00;1.00;;;;;;7367659;19;20011;-72
2024/02/22 01:07:32;;;;;;;3.70;2.00;;;11.00;1.00;;;;;;7368372;19;20014;-71
2024/02/22 01:10:03;;;;;;;2.45;1.50;;;11.00;1.00;;;;;;7370708;19;20410;-72
2024/02/22 01:12:33;;;;;;;2.67;1.40;;;10.90;1.00;;;;;;7369131;19;20255;-72
2024/02/22 01:15:05;;;;;;;1.98;1.60;;;10.90;1.00;;;;;;7368876;19;20011;-71
2024/02/22 01:17:36;;;;;;;2.95;1.70;;;10.90;1.00;;;;;;7366350;19;20058;-72
2024/02/22 01:20:10;;;;;;;4.32;1.92;;;11.00;1.00;;;;;;7369924;19;20014;-71
2024/02/22 01:22:44;;;;;;;;;;;10.90;1.00;;;;;;7371712;19;20054;-71
2024/02/22 01:25:14;;;;;;;2.95;1.50;;;10.90;1.00;;;;;;7367740;19;19919;-72
2024/02/22 01:27:44;;;;;;;2.65;1.20;;;10.90;1.00;;;;;;7367396;19;20090;-72
2024/02/22 01:30:14;;;;;;;2.38;1.33;;;10.90;1.00;;;;;;7368221;19;20010;-71
2024/02/22 01:32:44;;;;;;;1.33;1.20;;;10.90;1.00;;;;;;7367275;19;20026;-71
2024/02/22 01:35:14;;;;;;;2.17;1.60;;;10.90;1.00;;;;;;7369339;19;20021;-72
2024/02/22 01:37:46;;;;;;;1.50;1.23;;;10.90;1.00;;;;;;7367673;19;20010;-71
2024/02/22 01:40:17;;;;;;;2.40;1.30;;;10.90;1.00;;;;;;7371304;19;20040;-72
2024/02/22 01:42:47;;;;;;;1.52;1.30;;;10.90;1.00;;;;;;7367411;19;20012;-71
2024/02/22 01:45:17;;;;;;;2.60;1.33;;;10.80;1.00;;;;;;7364981;19;20840;-72
2024/02/22 01:47:47;;;;;;;2.70;1.42;;;10.80;1.00;;;;;;7368394;19;20007;-71
2024/02/22 01:50:18;;;;;;;1.77;1.20;;;10.90;1.00;;;;;;7369457;19;20470;-71
2024/02/22 01:52:51;;;;;;;2.08;1.35;;;10.90;1.00;;;;;;7370945;19;20014;-71
2024/02/22 01:55:22;;;;;;;2.30;1.30;;;10.90;1.00;;;;;;7366961;19;20471;-70
2024/02/22 01:57:53;;;;;;;3.40;1.10;;;10.90;1.00;;;;;;7368120;19;20018;-72
2024/02/22 02:00:24;;;;;;;1.83;1.40;;;10.90;1.00;;;;;;7367020;19;20082;-70
2024/02/22 02:02:55;;;;;;;2.20;1.48;;;10.90;1.00;;;;;;7361968;19;20007;-70
2024/02/22 02:05:25;;;;;;;2.15;1.08;;;10.80;1.00;;;;;;7366597;19;20010;-70
2024/02/22 02:07:58;;;;;;;1.50;1.10;;;10.80;1.00;;;;;;7365783;19;20315;-70
2024/02/22 02:10:28;;;;;;;2.03;1.25;;;10.80;1.00;;;;;;7367894;19;20018;-71
2024/02/22 02:13:04;;;;;;;1.50;1.17;;;10.80;1.00;;;;;;7367874;19;20013;-70
2024/02/22 02:15:34;;;;;;;2.05;1.30;;;10.70;1.00;;;;;;7366849;19;20018;-70
2024/02/22 02:18:04;;;;;;;1.35;1.20;;;10.60;1.00;;;;;;7366491;19;20014;-71
2024/02/22 02:20:39;;;;;;;1.75;1.20;;;10.60;1.00;;;;;;7367371;19;20032;-70
2024/02/22 02:23:27;;;;;;;1.65;1.10;;;10.70;1.00;;;;;;7367506;19;20190;-70
2024/02/22 02:25:59;;;;;;;1.63;1.00;;;10.70;1.00;;;;;;7364356;19;20053;-71
2024/02/22 02:28:29;;;;;;;1.88;0.90;;;10.70;1.00;;;;;;7367402;19;20107;-72
2024/02/22 02:30:59;;;;;;;1.80;1.10;;;10.70;1.00;;;;;;7373632;19;20414;-72
2024/02/22 02:33:29;;;;;;;2.05;1.15;;;10.60;1.00;;;;;;7373019;19;20017;-71
2024/02/22 02:35:59;;;;;;;3.17;1.25;;;10.60;1.00;;;;;;7372461;19;20468;-71
2024/02/22 02:38:29;;;;;;;1.23;0.80;;;10.60;1.00;;;;;;7373623;19;20354;-72
2024/02/22 02:41:02;;;;;;;1.23;0.90;;;10.60;1.00;;;;;;7374969;19;20044;-71
2024/02/22 02:43:32;;;;;;;1.25;0.95;;;10.50;1.00;;;;;;7374893;19;20031;-72
2024/02/22 02:46:00;;;;;;;1.42;0.90;;;10.50;1.00;;;;;;7375009;19;20513;-71
2024/02/22 02:48:30;;;;;;;1.23;0.93;;;10.60;1.00;;;;;;7372127;19;20032;-73
2024/02/22 02:51:01;;;;;;;1.10;0.88;;;10.50;1.00;;;;;;7375309;19;20015;-72
2024/02/22 02:53:31;;;;;;;1.08;0.88;;;10.50;1.00;;;;;;7372890;19;20019;-71
2024/02/22 02:56:03;;;;;;;1.45;0.70;;;10.50;1.00;;;;;;7373649;19;20006;-71
2024/02/22 02:58:33;;;;;;;1.65;1.10;;;10.50;1.00;;;;;;7373124;19;20452;-71
2024/02/22 03:01:03;;;;;;;1.67;1.00;;;10.40;1.00;;;;;;7373310;19;20010;-71
2024/02/22 03:03:34;;;;;;;2.50;1.05;;;10.40;1.00;;;;;;7373305;19;20058;-71
2024/02/22 03:06:04;;;;;;;1.10;0.82;;;10.40;1.00;;;;;;7372613;19;20015;-71
2024/02/22 03:08:34;;;;;;;1.33;0.90;;;10.40;1.00;;;;;;7372671;19;20002;-72
2024/02/22 03:11:07;;;;;;;0.80;0.70;;;10.40;1.00;;;;;;7374175;19;20385;-71
2024/02/22 03:13:38;;;;;;;2.33;0.80;;;10.30;1.00;;;;;;7372870;19;20086;-71
2024/02/22 03:16:11;;;;;;;0.98;0.70;;;10.30;1.00;;;;;;7372457;19;20017;-71
2024/02/22 03:18:41;;;;;;;3.53;0.82;;;10.30;1.00;;;;;;7372911;19;20025;-71
2024/02/22 03:21:14;;;;;;;1.23;0.75;;;10.20;1.00;;;;;;7375121;19;20006;-71
2024/02/22 03:23:44;;;;;;;1.45;0.60;;;10.10;1.00;;;;;;7373963;19;20028;-72
2024/02/22 03:26:16;;;;;;;1.02;0.70;;;10.10;1.00;;;;;;7373834;19;20006;-72
2024/02/22 03:28:47;;;;;;;1.27;0.95;;;10.10;1.00;;;;;;7348993;19;20090;-71
2024/02/22 03:31:17;;;;;;;1.25;0.82;;;10.00;1.00;;;;;;7371996;19;20017;-71
2024/02/22 03:33:47;;;;;;;1.20;0.80;;;10.10;1.00;;;;;;7372817;19;20527;-71
2024/02/22 03:36:17;;;;;;;0.60;0.40;;;10.10;1.00;;;;;;7372077;19;20032;-71
2024/02/22 03:38:47;;;;;;;0.88;0.68;;;10.10;1.00;;;;;;7371132;19;20010;-71
2024/02/22 03:41:26;;;;;;;1.70;0.70;;;10.10;1.00;;;;;;7370771;19;20014;-71
2024/02/22 03:43:57;;;;;;;1.05;0.70;;;10.10;1.00;;;;;;7370027;19;20060;-71
2024/02/22 03:46:27;;;;;;;0.82;0.70;;;10.10;1.00;;;;;;7371217;19;20015;-71
2024/02/22 03:48:57;;;;;;;1.25;0.60;;;10.10;1.00;;;;;;7371618;19;20018;-71
2024/02/22 03:51:27;;;;;;;0.90;0.70;;;10.10;1.00;;;;;;7373067;19;20464;-72
2024/02/22 03:54:00;;;;;;;1.35;0.80;;;10.10;1.00;;;;;;7373303;19;20014;-72
2024/02/22 03:56:34;;;;;;;2.90;0.90;;;10.10;1.00;;;;;;7372832;19;20023;-71
2024/02/22 03:59:06;;;;;;;;;;;10.10;1.00;;;;;;7370557;19;20467;-73
2024/02/22 04:01:36;;;;;;;1.88;0.88;;;10.00;1.00;;;;;;7368806;19;20015;-72
2024/02/22 04:04:06;;;;;;;0.85;0.80;;;10.00;1.00;;;;;;7373573;19;20044;-73
2024/02/22 04:06:37;;;;;;;1.27;0.85;;;10.00;1.00;;;;;;7370631;19;20367;-72
2024/02/22 04:09:09;;;;;;;0.75;0.70;;;10.00;1.00;;;;;;7373303;19;20018;-73
2024/02/22 04:11:42;;;;;;;0.95;0.60;;;10.00;1.00;;;;;;7373085;19;20050;-73
2024/02/22 04:14:12;;;;;;;3.47;1.45;;;10.00;1.00;;;;;;7370247;19;20014;-73
2024/02/22 04:16:43;;;;;;;1.17;0.77;;;9.90;1.00;;;;;;7370283;19;20117;-72
2024/02/22 04:19:13;;;;;;;1.00;0.70;;;9.90;1.00;;;;;;7371052;19;20813;-71
2024/02/22 04:21:47;;;;;;;1.10;0.90;;;9.90;1.00;;;;;;7371036;19;20401;-71
2024/02/22 04:24:17;;;;;;;1.05;0.70;;;9.90;1.00;;;;;;7369816;19;20785;-71
2024/02/22 04:26:54;;;;;;;1.55;0.90;;;10.00;1.00;;;;;;7370729;19;20919;-72
2024/02/22 04:29:24;;;;;;;1.40;0.82;;;10.00;1.00;;;;;;7371116;19;20665;-72
2024/02/22 04:31:54;;;;;;;2.15;0.90;;;10.00;1.00;;;;;;7367579;19;20532;-71
2024/02/22 04:34:24;;;;;;;1.35;1.10;;;10.00;1.00;;;;;;7370999;19;20825;-72
2024/02/22 04:36:55;;;;;;;1.58;1.00;;;9.90;1.00;;;;;;7370965;19;20033;-72
2024/02/22 04:39:25;;;;;;;1.10;0.73;;;9.90;1.00;;;;;;7371140;19;20014;-72
2024/02/22 04:41:58;;;;;;;0.98;0.88;;;9.90;1.00;;;;;;7371567;19;20066;-73
2024/02/22 04:44:29;;;;;;;2.53;0.80;;;9.90;1.00;;;;;;7370238;19;20010;-73
2024/02/22 04:46:59;;;;;;;2.47;1.20;;;9.90;1.00;;;;;;7371410;19;20523;-72
2024/02/22 04:49:29;;;;;;;2.13;0.98;;;9.90;1.00;;;;;;7370093;19;20365;-73
2024/02/22 04:52:03;;;;;;;1.27;1.00;;;9.80;1.00;;;;;;7371264;19;20681;-72
2024/02/22 04:54:33;;;;;;;1.10;0.80;;;9.90;1.00;;;;;;7372054;19;20446;-73
2024/02/22 04:57:15;;;;;;;1.38;1.00;;;9.90;1.00;;;;;;7366701;19;20022;-73
2024/02/22 04:59:45;;;;;;;1.85;1.10;;;9.90;1.00;;;;;;7371988;19;20011;-73
2024/02/22 05:02:15;;;;;;;0.80;0.70;;;9.90;1.00;;;;;;7372076;19;20033;-73
2024/02/22 05:04:45;;;;;;;0.95;0.82;;;9.90;1.00;;;;;;7370588;19;20426;-74
2024/02/22 05:07:15;;;;;;;1.55;0.88;;;9.90;1.00;;;;;;7370607;19;20559;-71
2024/02/22 05:09:45;;;;;;;1.73;0.90;;;9.90;1.00;;;;;;7371450;19;20022;-73
2024/02/22 05:12:18;;;;;;;1.83;1.38;;;9.90;1.00;;;;;;7373317;19;20357;-73
2024/02/22 05:14:48;;;;;;;1.33;0.95;;;9.80;1.00;;;;;;7373187;19;20021;-73
2024/02/22 05:17:21;;;;;;;1.65;1.00;;;9.80;1.00;;;;;;7369104;19;20014;-73
2024/02/22 05:19:51;;;;;;;1.00;0.80;;;9.80;1.00;;;;;;7370255;19;20479;-73
2024/02/22 05:22:21;;;;;;;1.50;0.98;;;9.70;1.00;;;;;;7370428;19;20014;-73
2024/02/22 05:24:51;;;;;;;1.40;1.02;;;9.70;1.00;;;;;;7369653;19;20014;-70
2024/02/22 05:27:24;;;;;;;1.08;0.90;;;9.70;1.00;;;;;;7369823;19;20014;-72
2024/02/22 05:29:54;;;;;;;0.90;0.70;;;9.70;1.00;;;;;;7370651;19;20086;-72
2024/02/22 05:32:25;;;;;;;2.08;0.98;;;9.60;1.00;;;;;;7367012;19;20022;-71
2024/02/22 05:34:55;;;;;;;3.60;1.08;;;9.60;1.00;;;;;;7366380;19;20018;-72
2024/02/22 05:37:25;;;;;;;1.08;0.80;;;9.60;1.00;;;;;;7365492;19;20014;-71
2024/02/22 05:39:56;;;;;;;1.52;1.05;;;9.60;1.00;;;;;;7368910;19;20037;-72
2024/02/22 05:42:28;;;;;;;2.45;0.85;;;9.60;1.00;;;;;;7369295;19;20018;-73
2024/02/22 05:44:58;;;;;;;1.15;0.80;;;9.70;1.00;;;;;;7369073;19;20091;-73
2024/02/22 05:47:28;;;;;;;1.30;0.90;;;9.70;1.00;;;;;;7369304;19;20015;-73
2024/02/22 05:49:59;;;;;;;1.98;0.80;;;9.60;1.00;;;;;;7371845;19;20024;-73
2024/02/22 05:52:29;;;;;;;1.30;0.80;;;9.60;1.00;;;;;;7371096;19;20078;-73
2024/02/22 05:54:59;;;;;;;3.08;1.23;;;9.60;1.00;;;;;;7369113;19;20023;-72
2024/02/22 05:57:32;;;;;;;1.98;1.02;;;9.60;1.00;;;;;;7367826;19;20015;-72
2024/02/22 06:00:02;;;;;;;1.85;1.20;;;9.50;1.00;;;;;;7369660;19;20049;-72
2024/02/22 06:02:41;;;;;;;1.17;0.90;;;9.50;1.00;;;;;;7365954;19;20640;-72
2024/02/22 06:05:13;;;;;;;1.20;1.00;;;9.50;1.00;;;;;;7368147;19;20068;-72
2024/02/22 06:07:43;;;;;;;2.20;0.95;;;9.50;1.00;;;;;;7366558;19;20017;-72
2024/02/22 06:10:13;;;;;;;1.50;1.00;;;9.60;1.00;;;;;;7371935;19;20480;-71
2024/02/22 06:12:46;;;;;;;1.55;1.05;;;9.60;1.00;;;;;;7370765;19;20014;-72
2024/02/22 06:15:16;;;;;;;0.93;0.70;;;9.60;1.00;;;;;;7365798;19;20015;-71
2024/02/22 06:17:46;;;;;;;2.05;0.95;;;9.60;1.00;;;;;;7367283;19;20475;-74
2024/02/22 06:20:16;;;;;;;1.63;0.90;;;9.60;1.00;;;;;;7369121;19;20018;-71
2024/02/22 06:22:47;;;;;;;1.95;0.95;;;9.60;1.00;;;;;;7369532;19;20428;-71
2024/02/22 06:25:17;;;;;;;1.27;0.80;;;9.60;1.00;;;;;;7365648;19;20018;-70
2024/02/22 06:27:49;;;;;;;1.42;1.00;;;9.60;1.00;;;;;;7369685;19;20071;-72
2024/02/22 06:30:21;;;;;;;2.35;1.15;;;9.60;1.00;;;;;;7366677;19;20467;-71
2024/02/22 06:32:51;;;;;;;1.45;1.02;;;9.70;1.00;;;;;;7367669;19;20017;-72
2024/02/22 06:35:21;;;;;;;1.80;1.15;;;9.60;1.00;;;;;;7368043;19;20014;-72
2024/02/22 06:37:51;;;;;;;1.67;0.95;;;9.70;1.00;;;;;;7366673;19;20355;-72
2024/02/22 06:40:21;;;;;;;2.20;1.58;;;9.70;1.00;;;;;;7367726;19;20018;-73
2024/02/22 06:42:54;;;;;;;1.83;1.17;;;9.60;1.00;;;;;;7371735;19;20372;-73
2024/02/22 06:45:25;;;;;;;1.55;1.25;;;9.60;1.00;;;;;;7366949;19;20014;-74
2024/02/22 06:47:55;;;;;;;2.13;1.10;;;9.60;1.00;;;;;;7367702;19;20014;-73
2024/02/22 06:50:25;;;;;;;1.38;1.10;;;9.60;1.00;;;;;;7367990;19;20006;-74
2024/02/22 06:52:55;;;;;;;1.05;0.80;;;9.60;1.00;;;;;;7368337;19;20037;-73
2024/02/22 06:55:26;;;;;;;1.40;1.10;;;9.60;1.00;;;;;;7369056;19;20109;-73
2024/02/22 06:57:58;;;;;;;1.88;0.98;;;9.60;1.00;;;;;;7366837;19;20010;-73
2024/02/22 07:00:28;;;;;;;1.38;0.90;;;9.60;1.00;;;;;;7369683;19;20011;-73
2024/02/22 07:02:58;;;;;;;1.45;1.00;;;9.60;1.00;;;;;;7367076;19;20064;-74
2024/02/22 07:05:32;;;;;;;;;;;9.60;1.00;;;;;;7368297;19;20495;-73
2024/02/22 07:08:02;;;;;;;2.17;1.00;;;9.70;1.00;;;;;;7366095;19;19944;-71
2024/02/22 07:10:33;;;;;;;1.60;1.38;;;9.60;1.00;;;;;;7369858;19;20010;-72
2024/02/22 07:13:05;;;;;;;2.45;1.05;;;9.70;1.00;;;;;;7367561;19;20419;-73
2024/02/22 07:15:35;;;;;;;2.67;1.20;;;9.60;1.00;;;;;;7373245;19;20010;-74
2024/02/22 07:18:08;;;;;;;1.58;1.10;;;9.70;1.00;;;;;;7373961;19;20015;-73
2024/02/22 07:20:40;;;;;;;2.17;1.00;;;9.70;1.00;;;;;;7374720;19;20526;-75
2024/02/22 07:23:11;;;;;;;2.42;1.10;;;9.70;1.00;;;;;;7375018;19;20119;-73
2024/02/22 07:25:41;;;;;;;3.10;1.02;;;9.70;1.00;;;;;;7372779;19;20018;-74
2024/02/22 07:28:15;;;;;;;3.22;1.05;;;9.70;1.00;;;;;;7374063;19;20010;-74
2024/02/22 07:30:45;;;;;;;1.98;0.93;;;9.70;1.00;;;;;;7373766;19;20575;-74
2024/02/22 07:33:15;;;;;;;1.67;0.98;;;9.70;1.00;;;;;;7373098;19;20014;-75
2024/02/22 07:35:45;;;;;;;2.50;1.02;;;9.70;1.00;;;;;;7373577;19;20678;-75
2024/02/22 07:38:15;;;;;;;2.17;1.10;;;9.70;1.00;;;;;;7373793;19;20014;-75
2024/02/22 07:40:45;;;;;;;2.72;1.20;;;9.70;1.00;;;;;;7373252;19;20431;-74
2024/02/22 07:43:18;;;;;;;2.38;1.40;;;9.70;1.00;;;;;;7374736;19;20339;-75
2024/02/22 07:45:49;;;;;;;3.88;1.48;;;9.70;1.00;;;;;;7374348;19;20003;-75
2024/02/22 07:48:19;;;;;;;2.30;1.30;;;9.70;1.00;;;;;;7373219;19;20011;-75
2024/02/22 07:50:49;;;;;;;3.40;1.58;;;9.70;1.00;;;;;;7374089;19;20022;-75
2024/02/22 07:53:19;;;;;;;2.78;1.58;;;9.70;1.00;;;;;;7372730;19;20014;-74
2024/02/22 07:55:50;;;;;;;2.40;1.70;;;9.80;1.00;;;;;;7374978;19;20011;-75
2024/02/22 07:58:22;;;;;;;2.70;1.70;;;9.70;1.00;;;;;;7372622;19;20319;-75
2024/02/22 08:00:53;;;;;;;2.92;2.20;;;9.80;1.00;;;;;;7373144;19;20082;-76
2024/02/22 08:03:24;;;;;;;4.90;2.85;;;9.80;1.00;;;;;;7372124;19;20025;-75
2024/02/22 08:05:54;;;;;;;6.95;4.38;;;9.80;1.00;;;;;;7371384;19;20442;-75
2024/02/22 08:08:24;;;;;;;4.78;3.03;;;9.80;1.00;;;;;;7371445;19;20043;-74
2024/02/22 08:10:54;;;;;;;4.32;2.92;;;9.80;1.00;;;;;;7375670;19;20461;-75
2024/02/22 08:13:27;;;;;;;3.13;2.38;;;9.80;1.00;;;;;;7375154;19;20014;-74
2024/02/22 08:16:05;;;;;;;3.60;2.38;;;9.80;1.00;;;;;;7371926;19;20017;-76
2024/02/22 08:18:36;;;;;;;3.55;2.28;;;9.80;1.00;;;;;;7372246;19;20010;-75
2024/02/22 08:21:08;;;;;;;4.53;2.33;;;9.80;1.00;;;;;;7371268;19;20011;-75
2024/02/22 08:23:40;;;;;;;4.18;2.33;;;9.80;1.00;;;;;;7369604;19;20006;-75
2024/02/22 08:26:10;;;;;;;3.15;2.03;;;9.80;1.00;;;;;;7370487;19;20480;-74
2024/02/22 08:28:42;;;;;;;4.15;2.10;;;9.80;1.00;;;;;;7361942;19;20051;-75
2024/02/22 08:31:13;;;;;;;4.25;2.00;;;9.80;1.00;;;;;;7368069;19;20014;-76
2024/02/22 08:33:47;;;;;;;4.15;1.98;;;9.80;1.00;;;;;;7369412;19;20372;-75
2024/02/22 08:36:18;;;;;;;3.10;2.13;;;9.70;1.00;;;;;;7371456;19;20026;-75
2024/02/22 08:38:48;;;;;;;3.50;1.90;;;9.70;6.70;;;;;;7372218;19;20006;-74
2024/02/22 08:41:19;;;;;;;4.88;1.90;;;9.70;3.40;;;;;;7372073;19;20010;-75
2024/02/22 08:43:53;;;;;;;4.05;2.40;;;9.70;9.00;;;;;;7369987;19;20022;-74
2024/02/22 08:46:24;;;;;;;3.00;1.40;;;9.80;8.60;;;;;;7369699;19;20018;-75
2024/02/22 08:48:56;;;;;;;5.13;2.60;;;9.90;1.00;;;;;;7372922;19;20327;-74
2024/02/22 08:51:27;;;;;;;1.63;1.25;;;9.90;1.00;;;;;;7373830;19;20078;-75
2024/02/22 08:53:57;;;;;;;2.65;1.67;;;9.90;1.00;;;;;;7371300;19;20083;-76
2024/02/22 08:56:27;;;;;;;1.65;0.98;;;10.00;1.00;;;;;;7369148;19;20011;-75
2024/02/22 08:59:00;;;;;;;1.80;0.90;;;10.00;1.00;;;;;;7372747;19;20050;-74
2024/02/22 09:01:32;;;;;;;1.08;0.70;;;10.00;1.00;;;;;;7371021;19;20085;-75
2024/02/22 09:04:03;;;;;;;1.48;1.00;;;10.00;1.00;;;;;;7370729;19;20020;-75
2024/02/22 09:06:33;;;;;;;1.80;1.08;;;10.10;1.00;;;;;;7369071;19;20013;-74
2024/02/22 09:09:07;;;;;;;1.10;0.80;;;10.10;1.00;;;;;;7373300;19;20007;-75
2024/02/22 09:11:37;;;;;;;1.30;0.93;;;10.10;1.00;;;;;;7372288;19;20102;-75
2024/02/22 09:14:10;;;;;;;1.58;0.80;;;10.10;1.00;;;;;;7371484;19;20009;-75
2024/02/22 09:16:40;;;;;;;1.52;0.70;;;10.20;1.00;;;;;;7372006;19;20118;-76
2024/02/22 09:19:11;;;;;;;1.20;0.90;;;10.10;1.00;;;;;;7371422;19;20498;-74
2024/02/22 09:21:42;;;;;;;1.10;0.80;;;10.10;1.00;;;;;;7368781;19;20412;-75
2024/02/22 09:24:12;;;;;;;1.48;1.00;;;10.20;1.00;;;;;;7370300;19;20621;-75
2024/02/22 09:26:42;;;;;;;4.57;1.10;;;10.20;1.00;;;;;;7367622;19;20006;-75
2024/02/22 09:29:15;;;;;;;3.20;0.93;;;10.20;1.00;;;;;;7371664;19;20010;-75
2024/02/22 09:31:45;;;;;;;1.55;1.10;;;10.20;1.00;;;;;;7365304;19;20427;-75
2024/02/22 09:34:15;;;;;;;0.75;0.55;;;10.30;1.00;;;;;;7369715;19;20095;-75
2024/02/22 09:36:46;;;;;;;1.27;0.70;;;10.40;1.00;;;;;;7368941;19;20010;-74
2024/02/22 09:39:16;;;;;;;1.13;0.80;;;10.40;1.00;;;;;;7370382;19;20011;-74
2024/02/22 09:41:46;;;;;;;1.55;0.77;;;10.40;1.00;;;;;;7370530;19;20614;-76
2024/02/22 09:44:19;;;;;;;1.38;0.70;;;10.40;1.00;;;;;;7370103;19;20006;-75
2024/02/22 09:46:53;;;;;;;1.55;0.98;;;10.40;1.00;;;;;;7366419;19;20195;-75
2024/02/22 09:49:24;;;;;;;0.98;0.80;;;10.50;1.00;;;;;;7369914;19;20069;-74
2024/02/22 09:51:56;;;;;;;2.92;1.90;;;10.50;1.00;;;;;;7368892;19;20017;-75
2024/02/22 09:54:26;;;;;;;2.45;0.90;;;10.50;1.00;;;;;;7368767;19;20074;-75
2024/02/22 09:56:57;;;;;;;0.82;0.57;;;10.50;1.00;;;;;;7368009;19;20018;-73
2024/02/22 09:59:29;;;;;;;0.70;0.60;;;10.60;1.00;;;;;;7369373;19;20017;-74
2024/02/22 10:02:05;;;;;;;1.95;0.65;;;10.60;1.00;;;;;;7368775;19;20337;-75
2024/02/22 10:04:35;;;;;;;3.88;0.98;;;10.60;1.00;;;;;;7369220;19;20049;-74
2024/02/22 10:07:07;;;;;;;2.42;1.52;;;10.60;1.00;;;;;;7368649;19;20007;-74
2024/02/22 10:09:44;;;;;;;3.30;1.20;;;10.70;1.00;;;;;;7370415;19;20014;-74
2024/02/22 10:12:24;;;;;;;1.27;0.50;;;10.70;1.00;;;;;;7370323;19;20024;-74
2024/02/22 10:15:00;;;;;;;1.00;0.57;;;10.70;1.00;;;;;;6856331;19;2003915;-75
2024/02/22 10:17:33;;;;;;;1.98;0.60;;;10.80;1.00;;;;;;7368644;19;20006;-74
2024/02/22 10:20:06;;;;;;;2.13;0.77;;;10.90;1.00;;;;;;7371061;19;20010;-75
2024/02/22 10:22:38;;;;;;;0.65;0.35;;;10.90;1.00;;;;;;7370027;19;20017;-74
2024/02/22 10:25:11;;;;;;;0.80;0.43;;;10.90;1.00;;;;;;7367755;19;20006;-74
2024/02/22 10:27:46;;;;;;;0.80;0.40;;;10.90;1.00;;;;;;7364161;19;20003;-75
2024/02/22 10:30:19;;;;;;;1.98;0.40;;;11.00;1.00;;;;;;7364415;19;20455;-74
2024/02/22 10:32:51;;;;;;;2.03;0.60;;;11.00;1.00;;;;;;7367103;19;20045;-74
2024/02/22 10:35:21;;;;;;;0.40;0.30;;;11.00;1.00;;;;;;7367231;19;20014;-73
2024/02/22 10:37:53;;;;;;;0.70;0.47;;;11.10;1.00;;;;;;7364923;19;20077;-73
2024/02/22 10:40:24;;;;;;;2.20;0.50;;;11.10;1.00;;;;;;7368002;19;20395;-74
2024/02/22 10:42:54;;;;;;;1.23;0.70;;;11.10;1.00;;;;;;7368979;19;20085;-74
2024/02/22 10:45:27;;;;;;;0.60;0.30;;;11.10;1.00;;;;;;7367731;19;20036;-73
2024/02/22 10:47:58;;;;;;;0.75;0.45;;;11.10;1.00;;;;;;7365397;19;20012;-74
2024/02/22 10:50:32;;;;;;;0.93;0.43;;;11.10;1.00;;;;;;7372280;19;20019;-74
2024/02/22 10:53:06;;;;;;;1.42;0.80;;;11.00;1.00;;;;;;7373775;19;20018;-74
2024/02/22 10:55:41;;;;;;;0.85;0.60;;;11.00;1.00;;;;;;7374162;19;20007;-74
2024/02/22 10:58:12;;;;;;;0.65;0.30;;;11.00;1.00;;;;;;7373238;19;20040;-74
2024/02/22 11:00:47;;;;;;;1.05;0.50;;;11.00;1.00;;;;;;7376143;19;20129;-76
2024/02/22 11:03:21;;;;;;;1.45;0.57;;;10.90;1.00;;;;;;7375005;19;20341;-75
2024/02/22 11:05:55;;;;;;;2.25;0.40;;;10.90;1.00;;;;;;7374854;19;20307;-75
2024/02/22 11:08:28;;;;;;;1.13;0.60;;;10.90;1.00;;;;;;7370493;19;20018;-73
2024/02/22 11:11:10;;;;;;;3.33;2.05;;;10.80;1.00;;;;;;7374747;19;20402;-75
2024/02/22 11:13:40;;;;;;;1.55;1.00;;;10.90;1.00;;;;;;7373440;19;20043;-76
2024/02/22 11:16:20;;;;;;;2.78;1.25;;;10.90;1.00;;;;;;7374336;19;20375;-75
2024/02/22 11:18:50;;;;;;;2.58;1.38;;;10.90;1.00;;;;;;7377640;19;20018;-74
2024/02/22 11:21:22;;;;;;;2.55;1.25;;;10.90;1.00;;;;;;7371032;19;20090;-74
2024/02/22 11:23:53;;;;;;;2.67;1.30;;;10.80;1.00;;;;;;7369744;19;20045;-74
2024/02/22 11:26:23;;;;;;;2.05;0.95;;;10.90;1.00;;;;;;7369786;19;20014;-75
2024/02/22 11:28:54;;;;;;;1.17;0.60;;;10.90;1.00;;;;;;7370980;19;20018;-75
2024/02/22 11:31:27;;;;;;;1.33;0.60;;;10.80;1.00;;;;;;7372572;19;20094;-75
2024/02/22 11:33:59;;;;;;;2.35;0.80;;;10.90;1.00;;;;;;7368488;19;20031;-75
2024/02/22 11:36:29;;;;;;;1.17;0.50;;;10.80;1.00;;;;;;7371019;19;20052;-75
2024/02/22 11:39:04;;;;;;;0.90;0.80;;;10.80;1.00;;;;;;7373106;19;20031;-75
2024/02/22 11:41:34;;;;;;;1.00;0.60;;;10.70;1.00;;;;;;7373397;19;20026;-75
2024/02/22 11:44:06;;;;;;;1.10;0.60;;;10.70;1.00;;;;;;7374789;19;20053;-75
2024/02/22 11:46:41;;;;;;;0.90;0.70;;;10.80;1.00;;;;;;7366101;19;20011;-74
2024/02/22 11:49:14;;;;;;;0.95;0.63;;;10.80;1.00;;;;;;7375282;19;20019;-75
2024/02/22 11:51:44;;;;;;;2.08;0.70;;;10.70;1.00;;;;;;7374728;19;20096;-76
2024/02/22 11:54:21;;;;;;;2.28;0.90;;;10.80;1.00;;;;;;7373751;19;20498;-74
2024/02/22 11:56:52;;;;;;;1.58;0.70;;;10.80;1.00;;;;;;7371879;19;20467;-75
2024/02/22 11:59:22;;;;;;;1.17;0.50;;;10.90;1.00;;;;;;7372258;19;20032;-74
2024/02/22 12:01:55;;;;;;;1.30;0.50;;;10.90;1.00;;;;;;7372198;19;20409;-74
2024/02/22 12:04:26;;;;;;;0.95;0.43;;;11.00;1.00;;;;;;7372532;19;20011;-75
2024/02/22 12:06:56;;;;;;;1.48;0.60;;;11.00;1.00;;;;;;7370902;19;20352;-75
2024/02/22 12:09:27;;;;;;;1.80;0.70;;;11.10;1.00;;;;;;7374278;19;20011;-75
2024/02/22 12:11:57;;;;;;;1.55;0.73;;;11.20;1.00;;;;;;7372424;19;20025;-75
2024/02/22 12:14:27;;;;;;;0.60;0.40;;;11.30;1.00;;;;;;7373346;19;20552;-74
2024/02/22 12:17:01;;;;;;;2.00;0.60;;;11.40;1.00;;;;;;7365513;19;20010;-74
2024/02/22 12:19:32;;;;;;;1.13;0.75;;;11.50;1.00;;;;;;7369406;19;20471;-74
2024/02/22 12:22:03;;;;;;;1.00;0.50;;;11.50;1.00;;;;;;7372167;19;20153;-75
2024/02/22 12:24:35;;;;;;;0.60;0.30;;;11.50;1.00;;;;;;7371157;19;20022;-74
2024/02/22 12:27:06;;;;;;;0.60;0.43;;;11.60;1.00;;;;;;7368890;19;20010;-74
2024/02/22 12:29:37;;;;;;;0.85;0.52;;;11.60;1.00;;;;;;7372656;19;20953;-74
2024/02/22 12:32:12;;;;;;;0.63;0.52;;;11.60;1.00;;;;;;7371628;19;20041;-74
2024/02/22 12:34:42;;;;;;;;;;;11.60;1.00;;;;;;7370658;19;20547;-73
2024/02/22 12:37:12;;;;;;;2.03;1.50;;;11.50;1.00;;;;;;7370171;19;19918;-72
2024/02/22 12:39:42;;;;;;;2.10;0.77;;;11.60;1.00;;;;;;7373793;19;20021;-72
2024/02/22 12:42:11;;;;;;;2.75;1.02;;;11.50;1.00;;;;;;7370954;19;20014;-74
2024/02/22 12:44:41;;;;;;;2.20;1.70;;;11.60;1.00;;;;;;7370532;19;20029;-73
2024/02/22 12:47:14;;;;;;;0.50;0.40;;;11.60;1.00;;;;;;7368970;19;20015;-72
2024/02/22 12:49:45;;;;;;;0.90;0.63;;;11.50;1.00;;;;;;7372419;19;20471;-74
2024/02/22 12:52:15;;;;;;;1.58;0.40;;;11.50;1.00;;;;;;7370556;19;20479;-73
2024/02/22 12:54:45;;;;;;;0.75;0.40;;;11.50;1.00;;;;;;7369013;19;20042;-73
2024/02/22 12:57:15;;;;;;;1.40;0.60;;;11.50;1.00;;;;;;7368724;19;20032;-73
2024/02/22 12:59:46;;;;;;;3.03;0.65;;;11.60;1.00;;;;;;7371771;19;20089;-72
2024/02/22 13:02:19;;;;;;;0.52;0.40;;;11.50;1.00;;;;;;7371561;19;20541;-73
2024/02/22 13:04:50;;;;;;;1.05;0.50;;;11.50;1.00;;;;;;7369286;19;20022;-72
2024/02/22 13:07:20;;;;;;;1.63;0.77;;;11.50;1.00;;;;;;7369280;19;20015;-72
2024/02/22 13:09:50;;;;;;;1.10;0.60;;;11.50;1.00;;;;;;7371440;19;20014;-73
2024/02/22 13:12:21;;;;;;;0.40;0.35;;;11.50;1.00;;;;;;7368849;19;20014;-72
2024/02/22 13:14:51;;;;;;;0.80;0.38;;;11.50;1.00;;;;;;7369257;19;20389;-73
2024/02/22 13:17:24;;;;;;;0.60;0.45;;;11.40;1.00;;;;;;7368892;19;20052;-73
2024/02/22 13:19:54;;;;;;;0.65;0.47;;;11.40;1.00;;;;;;7372196;19;20010;-73
2024/02/22 13:22:27;;;;;;;1.75;0.60;;;11.40;1.00;;;;;;7371933;19;20487;-73
2024/02/22 13:24:59;;;;;;;1.25;0.52;;;11.40;1.00;;;;;;7369417;19;20508;-73